Time;durP1;ratioP1;P1;durP2;ratioP2;P2;SDS_P1;SDS_P2;PMS_P1;PMS_P2;Temp;Humidity;BMP_temperature;BMP_pressure;BME280_temperature;BME280_humidity;BME280_pressure;Samples;Min_cycle;Max_cycle;Signal;HPM_P1;HPM_P2
2021/12/24 00:00:17;;;;;;;9.98;6.15;;;;;;;3.77;96.20;99132.59;8476544;34;20436;-77
2021/12/24 00:05:21;;;;;;;10.57;6.60;;;;;;;3.82;95.46;99115.34;8477191;34;20464;-78
2021/12/24 00:10:25;;;;;;;5.65;4.50;;;;;;;3.84;95.75;99109.91;8476798;34;20572;-77
2021/12/24 00:37:03;;;;;;;7.18;4.05;;;;;;;3.98;96.24;99093.84;8522369;33;20417;-78
2021/12/24 00:42:07;;;;;;;9.32;5.50;;;;;;;4.15;96.06;99088.09;8500939;34;20161;-79
2021/12/24 00:47:11;;;;;;;8.02;5.13;;;;;;;4.05;96.27;99102.19;8499376;34;20134;-78
2021/12/24 00:52:33;;;;;;;10.13;5.82;;;;;;;4.09;96.21;99093.88;8506763;34;20519;-78
2021/12/24 00:57:39;;;;;;;10.13;6.50;;;;;;;4.36;95.10;99090.97;8500679;33;20524;-77
2021/12/24 01:02:46;;;;;;;12.82;6.30;;;;;;;4.27;95.53;99083.66;8543541;33;20145;-79
2021/12/24 01:07:52;;;;;;;9.15;5.28;;;;;;;4.45;95.23;99078.75;8519838;34;20430;-77
2021/12/24 01:12:58;;;;;;;9.50;6.60;;;;;;;4.44;95.52;99076.22;8521182;33;20414;-78
2021/12/24 01:18:10;;;;;;;12.32;7.05;;;;;;;4.34;95.64;99079.59;8499961;34;20153;-78
2021/12/24 01:23:31;;;;;;;12.60;7.30;;;;;;;4.45;96.47;99076.09;8510062;34;20256;-78
2021/12/24 01:28:49;;;;;;;12.60;7.25;;;;;;;4.41;97.00;99071.97;8493347;34;20138;-79
2021/12/24 01:39:22;;;;;;;11.00;6.90;;;;;;;4.46;97.24;99055.69;8502087;33;20142;-77
2021/12/24 01:44:27;;;;;;;11.63;6.95;;;;;;;4.53;96.77;99055.09;8496943;34;20156;-79
2021/12/24 01:49:38;;;;;;;8.48;5.47;;;;;;;4.53;96.60;99055.09;8512810;33;20574;-78
2021/12/24 01:54:46;;;;;;;12.02;5.50;;;;;;;4.55;96.76;99054.97;8491402;34;20126;-78
2021/12/24 01:59:49;;;;;;;12.05;6.55;;;;;;;4.68;96.77;99047.72;8483596;34;20199;-78
2021/12/24 02:04:56;;;;;;;16.30;8.60;;;;;;;4.73;97.46;99050.03;8491223;33;20446;-78
2021/12/24 02:09:59;;;;;;;16.55;9.10;;;;;;;4.71;97.79;99044.00;8492485;33;20177;-78
2021/12/24 02:15:04;;;;;;;12.13;7.53;;;;;;;4.83;96.86;99043.03;8490467;34;20451;-78
2021/12/24 02:30:58;;;;;;;11.13;6.53;;;;;;;4.76;98.06;99020.53;8472267;33;20436;-78
2021/12/24 02:36:05;;;;;;;8.93;5.55;;;;;;;5.01;97.07;99019.47;8474195;34;20479;-78
2021/12/24 02:41:11;;;;;;;18.27;10.52;;;;;;;5.03;97.35;99018.38;8473240;34;20778;-78
2021/12/24 02:46:25;;;;;;;12.95;5.72;;;;;;;4.98;96.91;99001.91;8478139;34;20155;-77
2021/12/24 02:56:59;;;;;;;14.25;7.82;;;;;;;5.00;97.50;99007.97;8483978;34;20165;-77
2021/12/24 03:02:02;;;;;;;15.93;8.32;;;;;;;5.30;96.49;98995.00;8476329;34;20141;-77
2021/12/24 03:07:07;;;;;;;22.08;12.57;;;;;;;5.19;97.40;98982.56;8510265;33;20423;-76
2021/12/24 03:12:11;;;;;;;21.80;13.05;;;;;;;5.39;96.66;98986.25;8481873;34;20212;-77
2021/12/24 03:17:18;;;;;;;17.92;11.15;;;;;;;5.34;95.77;98969.81;8496254;33;20278;-76
2021/12/24 03:22:39;;;;;;;21.58;11.75;;;;;;;5.42;95.48;98967.34;8507488;28;20548;-78
2021/12/24 03:27:42;;;;;;;21.95;11.48;;;;;;;5.46;96.15;98966.16;8513900;34;20130;-77
2021/12/24 03:32:47;;;;;;;16.35;9.38;;;;;;;5.52;95.64;98948.81;8481970;34;20190;-78
2021/12/24 03:37:52;;;;;;;15.40;8.27;;;;;;;5.31;97.27;98956.75;8457661;34;20414;-78
2021/12/24 03:42:57;;;;;;;14.48;7.97;;;;;;;5.26;98.33;98935.81;8476077;34;20157;-77
2021/12/24 03:48:14;;;;;;;17.45;9.60;;;;;;;5.57;96.73;98951.91;8451294;34;20145;-78
2021/12/24 03:58:39;;;;;;;16.27;9.38;;;;;;;5.41;98.01;98945.22;8474655;34;20423;-77
2021/12/24 04:04:20;;;;;;;21.23;11.52;;;;;;;5.58;97.38;98941.16;8472432;34;20436;-77
2021/12/24 04:09:54;;;;;;;20.85;11.00;;;;;;;5.56;98.19;98948.41;8431650;34;20560;-77
2021/12/24 04:15:23;;;;;;;21.60;10.75;;;;;;;5.58;97.75;98942.97;8474125;34;20168;-77
2021/12/24 04:25:48;;;;;;;22.15;11.30;;;;;;;5.74;97.54;98932.72;8471328;34;20145;-77
2021/12/24 04:30:53;;;;;;;28.05;15.68;;;;;;;5.84;97.73;98938.97;8445985;34;20533;-77
2021/12/24 04:35:59;;;;;;;19.65;9.68;;;;;;;5.83;97.33;98941.75;8444406;34;20252;-77
2021/12/24 04:51:50;;;;;;;22.05;12.23;;;;;;;5.94;97.24;98945.19;8448253;34;20553;-78
2021/12/24 05:02:33;;;;;;;19.08;9.88;;;;;;;6.16;96.77;98938.88;8469389;34;20138;-76
2021/12/24 05:08:09;;;;;;;15.93;8.45;;;;;;;5.99;97.59;98939.50;8447905;34;20442;-78
2021/12/24 05:13:17;;;;;;;15.38;8.05;;;;;;;6.15;96.61;98952.38;8448660;34;20447;-78
2021/12/24 05:19:02;;;;;;;10.80;5.50;;;;;;;6.07;96.76;98957.50;8474322;34;20921;-79
2021/12/24 05:24:30;;;;;;;11.00;5.50;;;;;;;6.15;97.42;98953.22;8442717;34;20499;-79
2021/12/24 05:29:35;;;;;;;8.20;4.95;;;;;;;6.03;98.01;98951.56;8449271;34;20415;-79
2021/12/24 05:34:39;;;;;;;10.30;5.32;;;;;;;6.13;97.28;98951.66;8450401;34;20153;-80
2021/12/24 05:39:42;;;;;;;12.90;7.90;;;;;;;6.34;97.15;98944.47;8474525;34;20503;-79
2021/12/24 05:44:47;;;;;;;11.75;6.15;;;;;;;6.37;96.15;98962.03;8445982;34;20936;-79
2021/12/24 05:50:08;;;;;;;13.88;6.93;;;;;;;6.47;96.06;98954.91;8448367;34;20168;-77
2021/12/24 05:55:22;;;;;;;13.38;7.57;;;;;;;6.49;96.52;98952.13;8465320;34;20167;-77
2021/12/24 06:00:33;;;;;;;13.18;7.95;;;;;;;6.29;97.20;98952.03;8448150;34;20137;-78
2021/12/24 06:05:39;;;;;;;17.83;9.70;;;;;;;6.35;97.06;98967.50;8452630;34;20452;-78
2021/12/24 06:10:48;;;;;;;16.70;9.35;;;;;;;6.63;95.59;98967.78;8471788;34;21041;-77
2021/12/24 06:15:53;;;;;;;20.77;10.95;;;;;;;6.66;96.50;98972.84;8475314;34;20428;-77
2021/12/24 06:21:03;;;;;;;24.85;10.32;;;;;;;6.76;95.55;98970.22;8479147;34;20409;-78
2021/12/24 06:26:12;;;;;;;21.60;10.30;;;;;;;6.36;97.10;98984.34;8461569;34;20430;-78
2021/12/24 06:31:16;;;;;;;24.23;12.07;;;;;;;6.40;97.41;98980.44;8466835;34;20426;-77
2021/12/24 06:36:19;;;;;;;23.50;11.63;;;;;;;6.66;95.55;98975.50;8469014;34;20440;-78
2021/12/24 06:41:25;;;;;;;21.70;8.75;;;;;;;6.42;96.66;98978.50;8464625;34;20515;-78
2021/12/24 06:46:32;;;;;;;24.73;14.82;;;;;;;6.56;96.36;98987.97;8463439;34;20458;-78
2021/12/24 06:51:35;;;;;;;31.83;13.82;;;;;;;6.60;96.10;98968.88;8436734;34;20984;-77
2021/12/24 06:56:41;;;;;;;29.10;13.30;;;;;;;6.70;95.42;98978.78;8441570;34;20448;-77
2021/12/24 07:01:46;;;;;;;26.25;14.38;;;;;;;6.73;94.91;98984.69;8438247;34;20435;-77
2021/12/24 07:06:49;;;;;;;33.33;15.77;;;;;;;6.80;95.85;98983.16;8442453;34;20152;-78
2021/12/24 07:11:54;;;;;;;33.42;16.52;;;;;;;6.80;94.30;98985.84;8470159;34;20173;-77
2021/12/24 07:17:00;;;;;;;30.45;13.75;;;;;;;6.77;94.71;99002.09;8461627;34;20297;-77
2021/12/24 07:22:04;;;;;;;34.20;16.00;;;;;;;6.83;93.99;98993.56;8458956;34;20509;-77
2021/12/24 07:27:07;;;;;;;34.47;15.95;;;;;;;6.78;94.18;98982.44;8460852;34;20272;-77
2021/12/24 07:32:11;;;;;;;33.95;15.57;;;;;;;6.86;93.67;98981.78;8469761;34;20424;-79
2021/12/24 07:37:15;;;;;;;41.42;17.75;;;;;;;6.79;93.99;98991.31;8454849;34;20435;-77
2021/12/24 07:42:18;;;;;;;32.58;14.60;;;;;;;6.93;92.27;98995.47;8473648;34;20208;-77
2021/12/24 07:47:32;;;;;;;26.90;13.90;;;;;;;6.59;94.44;98993.88;8477256;34;20240;-79
2021/12/24 07:52:39;;;;;;;22.77;11.00;;;;;;;6.73;93.54;99002.50;8483689;34;20429;-77
2021/12/24 07:57:42;;;;;;;27.73;12.55;;;;;;;6.63;93.09;98999.78;8453927;34;20252;-76
2021/12/24 08:02:51;;;;;;;43.00;16.73;;;;;;;6.46;94.28;98993.25;8468325;34;20152;-78
2021/12/24 08:08:20;;;;;;;36.65;17.42;;;;;;;6.79;92.81;98997.47;8470436;34;20183;-78
2021/12/24 08:13:55;;;;;;;28.13;12.32;;;;;;;6.53;93.77;98998.91;8467641;34;20679;-77
2021/12/24 08:19:24;;;;;;;27.23;12.15;;;;;;;6.68;92.83;98994.91;8468093;34;20138;-78
2021/12/24 08:24:49;;;;;;;37.35;17.52;;;;;;;6.70;93.43;99030.31;8478266;34;20154;-78
2021/12/24 08:30:47;;;;;;;38.40;15.65;;;;;;;6.73;93.09;99019.38;8472117;34;20150;-78
2021/12/24 08:35:55;;;;;;;37.90;16.17;;;;;;;6.66;93.32;99020.03;8474197;34;20442;-76
2021/12/24 08:41:22;;;;;;;41.80;17.35;;;;;;;6.76;92.78;99024.44;8470652;34;20453;-77
2021/12/24 08:46:51;;;;;;;39.33;18.70;;;;;;;6.61;94.30;99017.78;8466075;34;20694;-77
2021/12/24 08:51:59;;;;;;;37.25;16.85;;;;;;;6.45;93.72;99014.72;8444195;34;21092;-77
2021/12/24 08:57:05;;;;;;;21.38;11.43;;;;;;;6.40;94.09;99012.44;8473362;34;20424;-77
2021/12/24 09:02:12;;;;;;;41.00;17.63;;;;;;;6.49;94.32;99018.81;8448530;34;20467;-77
2021/12/24 09:07:19;;;;;;;31.35;12.75;;;;;;;6.51;93.85;99016.88;8473203;34;20439;-77
2021/12/24 09:12:51;;;;;;;30.08;12.85;;;;;;;6.52;93.36;99022.06;8473433;34;20249;-77
2021/12/24 09:18:13;;;;;;;26.98;13.85;;;;;;;6.73;92.15;99027.38;8472989;34;20569;-77
2021/12/24 09:23:47;;;;;;;30.90;14.95;;;;;;;6.75;92.46;99033.44;8500530;28;20184;-76
2021/12/24 09:29:17;;;;;;;31.17;15.25;;;;;;;6.56;92.42;99026.16;8475721;34;20933;-79
2021/12/24 09:34:57;;;;;;;30.02;14.88;;;;;;;6.68;92.22;99026.91;8478455;34;20944;-77
2021/12/24 09:40:04;;;;;;;29.92;13.75;;;;;;;6.74;92.32;99038.88;8465238;34;20524;-76
2021/12/24 09:45:10;;;;;;;28.50;12.32;;;;;;;6.57;91.88;99035.00;8482105;34;20418;-76
2021/12/24 09:50:19;;;;;;;31.55;14.60;;;;;;;6.72;92.16;99038.16;8462515;34;20157;-77
2021/12/24 09:55:29;;;;;;;25.05;10.20;;;;;;;6.31;93.11;99027.41;8489320;34;20428;-76
2021/12/24 10:00:33;;;;;;;21.17;9.48;;;;;;;6.42;92.03;99039.84;8485226;34;20464;-77
2021/12/24 10:05:39;;;;;;;23.60;9.80;;;;;;;6.44;91.69;99027.19;8484245;34;20149;-78
2021/12/24 10:10:50;;;;;;;22.75;10.75;;;;;;;6.31;91.95;99040.75;8455069;34;20157;-77
2021/12/24 10:15:55;;;;;;;18.35;9.90;;;;;;;6.48;91.29;99033.13;8479954;34;20441;-79
2021/12/24 10:21:00;;;;;;;17.10;7.72;;;;;;;6.55;90.45;99020.94;8459722;34;20200;-77
2021/12/24 10:26:18;;;;;;;24.08;10.45;;;;;;;6.39;91.13;99019.59;8482980;34;20433;-77
2021/12/24 10:31:25;;;;;;;17.30;8.23;;;;;;;6.40;90.92;99009.78;8484334;34;20569;-79
2021/12/24 10:36:28;;;;;;;26.60;11.43;;;;;;;6.31;91.61;99021.25;8455676;34;20165;-77
2021/12/24 10:41:45;;;;;;;28.77;12.88;;;;;;;6.51;91.16;99017.72;8477201;34;20150;-77
2021/12/24 10:47:12;;;;;;;23.10;10.48;;;;;;;6.32;91.62;99028.25;8478037;34;20426;-79
2021/12/24 10:58:17;;;;;;;16.73;7.32;;;;;;;6.19;92.25;99007.09;8401214;34;20196;-79
2021/12/24 11:03:28;;;;;;;22.52;9.27;;;;;;;6.30;91.88;98993.72;8487869;34;20424;-77
2021/12/24 11:08:32;;;;;;;26.58;11.75;;;;;;;6.28;92.16;98989.47;8467333;34;20982;-80
2021/12/24 11:13:40;;;;;;;18.27;10.25;;;;;;;6.29;92.26;98992.03;8490726;34;20145;-77
2021/12/24 11:18:56;;;;;;;23.00;11.13;;;;;;;6.43;91.93;98993.50;8504615;34;20987;-77
2021/12/24 11:24:02;;;;;;;24.90;11.02;;;;;;;6.20;92.16;98997.28;8472527;34;20919;-76
2021/12/24 11:29:10;;;;;;;27.52;10.80;;;;;;;6.13;92.70;98995.13;8492544;34;20411;-78
2021/12/24 11:34:14;;;;;;;25.27;10.90;;;;;;;6.23;91.75;98997.03;8492972;34;20442;-79
2021/12/24 11:39:18;;;;;;;23.08;12.48;;;;;;;6.37;92.24;98999.38;8488871;34;20422;-79
2021/12/24 11:44:24;;;;;;;22.20;11.68;;;;;;;6.16;92.48;99004.69;8492756;34;20424;-79
2021/12/24 11:49:31;;;;;;;21.85;11.27;;;;;;;6.21;91.70;99010.50;8476185;34;20931;-77
2021/12/24 11:54:35;;;;;;;23.05;10.35;;;;;;;6.44;91.51;98997.00;8491405;34;20149;-78
2021/12/24 11:59:41;;;;;;;18.13;9.52;;;;;;;6.21;92.31;99004.31;8465114;34;20154;-79
2021/12/24 12:05:16;;;;;;;20.10;10.40;;;;;;;6.08;93.74;99004.50;8487359;34;20420;-78
2021/12/24 12:10:52;;;;;;;19.55;9.52;;;;;;;6.18;93.25;99006.28;8484343;34;20157;-79
2021/12/24 12:16:01;;;;;;;25.52;10.60;;;;;;;6.27;92.94;98990.47;8461166;34;20445;-78
2021/12/24 12:21:10;;;;;;;18.75;10.30;;;;;;;6.34;93.44;98988.97;8484835;34;20575;-78
2021/12/24 12:26:41;;;;;;;18.25;9.27;;;;;;;6.14;94.14;98988.84;8487979;34;20985;-76
2021/12/24 12:31:46;;;;;;;23.13;9.18;;;;;;;6.29;93.52;98989.34;8457927;34;20261;-77
2021/12/24 12:36:52;;;;;;;18.92;9.70;;;;;;;6.05;93.84;98975.44;8477561;34;20149;-76
2021/12/24 12:41:56;;;;;;;25.90;10.13;;;;;;;6.18;94.48;98986.75;8477719;34;20146;-77
2021/12/24 12:47:12;;;;;;;19.75;10.52;;;;;;;5.95;95.24;98978.03;8484055;34;20680;-77
2021/12/24 12:52:28;;;;;;;24.90;11.20;;;;;;;6.11;94.42;98980.25;8499617;34;20269;-77
2021/12/24 12:57:40;;;;;;;19.75;9.55;;;;;;;6.33;94.53;98972.09;8502244;34;20447;-77
2021/12/24 13:03:10;;;;;;;23.67;9.80;;;;;;;6.29;94.27;98968.03;8472192;34;20157;-76
2021/12/24 13:08:20;;;;;;;15.90;9.15;;;;;;;6.19;94.09;98964.44;8487782;34;20442;-76
2021/12/24 13:13:26;;;;;;;15.23;6.68;;;;;;;5.88;95.63;98972.38;8461201;34;20452;-76
2021/12/24 13:18:32;;;;;;;18.83;8.85;;;;;;;6.31;94.83;98978.56;8481534;34;20776;-76
2021/12/24 13:23:39;;;;;;;15.90;7.20;;;;;;;6.32;93.73;98978.44;8473513;34;20421;-77
2021/12/24 13:29:00;;;;;;;14.27;6.93;;;;;;;6.01;94.90;98982.03;8474764;34;20951;-76
2021/12/24 13:34:11;;;;;;;16.13;8.25;;;;;;;5.85;95.90;98979.78;8462749;34;20625;-76
2021/12/24 13:39:22;;;;;;;14.23;6.97;;;;;;;6.08;95.20;98975.19;8480622;34;20456;-77
2021/12/24 13:44:31;;;;;;;17.88;8.85;;;;;;;6.53;93.72;98977.56;8484811;34;20427;-77
2021/12/24 13:50:02;;;;;;;12.48;6.15;;;;;;;6.06;95.24;98986.00;8483842;34;20173;-77
2021/12/24 13:55:18;;;;;;;10.77;6.18;;;;;;;6.05;95.43;98988.78;8489502;34;21120;-77
2021/12/24 14:00:26;;;;;;;12.55;5.93;;;;;;;6.27;94.84;98988.63;8490281;34;20470;-77
2021/12/24 14:05:33;;;;;;;9.07;4.93;;;;;;;6.31;93.97;98987.41;8490590;34;20389;-76
2021/12/24 14:10:37;;;;;;;11.68;5.75;;;;;;;6.55;94.37;99013.78;8486308;34;20436;-75
2021/12/24 14:15:56;;;;;;;4.82;3.00;;;;;;;6.53;90.52;99015.75;8486574;34;20450;-75
2021/12/24 14:26:20;;;;;;;4.18;2.75;;;;;;;4.82;90.65;99078.56;8479324;33;20559;-75
2021/12/24 14:31:23;;;;;;;3.65;3.05;;;;;;;4.54;90.91;99077.22;8476641;34;20141;-76
2021/12/24 14:36:27;;;;;;;2.85;2.50;;;;;;;4.40;90.73;99097.72;8476703;34;20473;-77
2021/12/24 14:41:31;;;;;;;2.72;2.53;;;;;;;4.39;90.67;99114.66;8486552;34;20416;-75
2021/12/24 14:46:34;;;;;;;3.90;3.42;;;;;;;4.30;90.30;99130.44;8485723;34;20132;-77
2021/12/24 14:51:39;;;;;;;7.40;5.68;;;;;;;4.17;90.38;99130.53;8488586;34;20225;-76
2021/12/24 14:56:46;;;;;;;7.28;5.07;;;;;;;4.11;90.50;99146.91;8491084;34;20454;-75
2021/12/24 15:01:58;;;;;;;6.28;4.30;;;;;;;3.94;90.23;99156.09;8492264;34;20195;-76
2021/12/24 15:07:08;;;;;;;4.40;3.80;;;;;;;3.91;90.33;99167.81;8487482;34;20700;-77
2021/12/24 15:12:26;;;;;;;10.95;6.43;;;;;;;3.90;90.30;99160.81;8489580;34;20438;-78
2021/12/24 15:17:39;;;;;;;12.05;6.90;;;;;;;3.81;90.03;99160.63;8489106;34;20699;-77
2021/12/24 15:22:43;;;;;;;8.93;6.35;;;;;;;3.79;90.34;99176.69;8489375;34;21026;-76
2021/12/24 15:27:47;;;;;;;10.65;7.25;;;;;;;3.76;90.66;99199.94;8490366;34;20422;-77
2021/12/24 15:32:50;;;;;;;6.75;5.03;;;;;;;3.77;90.22;99213.13;8493876;34;20245;-77
2021/12/24 15:37:54;;;;;;;4.47;3.88;;;;;;;3.70;90.36;99225.13;8492377;34;20169;-78
2021/12/24 15:43:01;;;;;;;6.57;4.65;;;;;;;3.68;89.93;99235.88;8501659;34;20501;-77
2021/12/24 15:48:06;;;;;;;6.10;4.90;;;;;;;3.59;90.29;99236.50;8492644;34;20446;-78
2021/12/24 15:53:11;;;;;;;6.25;4.57;;;;;;;3.63;90.26;99258.41;8482582;34;20462;-76
2021/12/24 15:58:16;;;;;;;7.57;5.72;;;;;;;3.69;90.31;99247.34;8479362;34;20235;-77
2021/12/24 16:03:24;;;;;;;6.40;5.38;;;;;;;3.66;90.33;99250.22;8480851;34;20500;-76
2021/12/24 16:08:32;;;;;;;10.27;7.05;;;;;;;3.55;90.31;99253.63;8436473;34;20431;-77
2021/12/24 16:13:35;;;;;;;10.85;7.55;;;;;;;3.57;90.33;99257.03;8463659;34;20432;-78
2021/12/24 16:18:38;;;;;;;14.60;7.82;;;;;;;3.55;90.12;99260.75;8502203;34;20501;-79
2021/12/24 16:23:43;;;;;;;13.65;8.13;;;;;;;3.52;90.35;99274.25;8492320;34;20970;-76
2021/12/24 16:28:46;;;;;;;11.40;8.35;;;;;;;3.52;90.27;99275.09;8487970;34;20906;-76
2021/12/24 16:33:49;;;;;;;11.60;8.35;;;;;;;3.55;90.23;99271.38;8491089;34;20470;-79
2021/12/24 16:40:06;;;;;;;14.40;9.90;;;;;;;3.55;90.04;99279.34;8500681;34;20442;-79
2021/12/24 16:45:28;;;;;;;12.07;9.77;;;;;;;3.59;90.23;99279.00;8481309;34;20151;-78
2021/12/24 16:50:37;;;;;;;11.07;7.60;;;;;;;3.42;89.64;99292.59;8503915;34;20410;-79
2021/12/24 16:55:42;;;;;;;9.90;7.80;;;;;;;3.37;89.66;99300.03;8502453;34;20420;-79
2021/12/24 17:00:52;;;;;;;9.40;7.43;;;;;;;3.30;89.78;99314.69;8501746;34;20149;-78
2021/12/24 17:05:57;;;;;;;8.73;6.78;;;;;;;3.13;89.45;99314.03;8503210;34;20427;-78
2021/12/24 17:11:01;;;;;;;8.68;6.38;;;;;;;2.92;89.50;99312.78;8456510;34;20150;-78
2021/12/24 17:16:06;;;;;;;8.10;6.50;;;;;;;2.98;89.77;99312.38;8503201;34;20137;-79
2021/12/24 17:21:09;;;;;;;7.65;6.35;;;;;;;3.01;89.52;99310.34;8502558;34;20445;-77
2021/12/24 17:26:13;;;;;;;6.63;4.93;;;;;;;2.95;89.60;99315.25;8479563;34;20439;-77
2021/12/24 17:31:22;;;;;;;7.55;5.25;;;;;;;2.91;89.80;99325.22;8507845;34;20153;-78
2021/12/24 17:36:30;;;;;;;6.25;4.38;;;;;;;2.82;89.37;99320.50;8511275;34;20196;-78
2021/12/24 17:41:33;;;;;;;6.03;5.28;;;;;;;2.73;89.83;99332.56;8484713;34;20470;-78
2021/12/24 17:46:39;;;;;;;7.20;5.07;;;;;;;2.74;89.82;99336.94;8507550;34;20425;-79
2021/12/24 17:51:43;;;;;;;6.95;4.93;;;;;;;2.79;90.15;99328.66;8482522;34;20270;-78
2021/12/24 17:56:47;;;;;;;9.75;6.20;;;;;;;2.74;89.82;99328.97;8501364;34;20145;-78
2021/12/24 18:12:47;;;;;;;10.20;6.93;;;;;;;2.57;89.82;99343.31;8483595;34;20446;-78
2021/12/24 18:18:01;;;;;;;9.27;7.10;;;;;;;2.68;89.79;99350.56;8501881;34;20146;-77
2021/12/24 18:23:05;;;;;;;18.45;9.48;;;;;;;2.76;89.79;99358.03;8502467;34;20429;-77
2021/12/24 18:28:09;;;;;;;15.25;9.68;;;;;;;2.79;90.38;99363.97;8497980;34;20418;-77
2021/12/24 18:33:35;;;;;;;11.10;8.10;;;;;;;2.84;90.11;99359.22;8468801;34;20422;-79
2021/12/24 18:38:38;;;;;;;13.35;8.93;;;;;;;2.87;89.91;99360.84;8485040;34;20172;-77
2021/12/24 18:43:41;;;;;;;13.63;9.23;;;;;;;2.79;89.62;99371.94;8484730;34;20145;-79
2021/12/24 18:48:46;;;;;;;13.75;9.20;;;;;;;2.72;89.55;99367.16;8478065;34;20449;-79
2021/12/24 18:53:49;;;;;;;10.52;7.13;;;;;;;2.71;89.81;99390.13;8470760;34;20224;-78
2021/12/24 18:58:52;;;;;;;6.60;5.07;;;;;;;2.65;89.67;99398.50;8518841;34;20180;-75
2021/12/24 19:03:56;;;;;;;8.27;5.22;;;;;;;2.61;89.53;99410.25;8512551;34;20146;-77
2021/12/24 19:08:59;;;;;;;6.10;5.03;;;;;;;2.49;89.47;99406.53;8478532;34;20506;-80
2021/12/24 19:14:02;;;;;;;7.55;5.07;;;;;;;2.46;89.38;99413.84;8457954;34;20427;-80
2021/12/24 19:19:11;;;;;;;6.70;4.25;;;;;;;2.45;88.98;99443.94;8489819;34;20146;-79
2021/12/24 19:24:15;;;;;;;6.72;4.43;;;;;;;2.39;89.49;99456.63;8487662;34;20492;-79
2021/12/24 19:29:21;;;;;;;6.88;4.55;;;;;;;2.12;88.64;99448.56;8482730;34;20678;-79
2021/12/24 19:34:26;;;;;;;6.15;4.20;;;;;;;1.89;88.89;99444.69;8482667;34;20161;-80
2021/12/24 19:39:29;;;;;;;5.95;4.63;;;;;;;1.81;88.66;99449.59;8474436;34;20251;-78
2021/12/24 19:44:32;;;;;;;7.28;5.22;;;;;;;1.82;88.86;99456.56;8474047;34;20448;-79
2021/12/24 19:49:37;;;;;;;11.48;5.75;;;;;;;1.75;88.96;99470.25;8451020;34;21253;-80
2021/12/24 19:54:40;;;;;;;7.82;5.40;;;;;;;1.68;88.75;99480.38;8477199;34;20168;-78
2021/12/24 19:59:43;;;;;;;8.65;6.25;;;;;;;1.58;88.59;99485.34;8474988;34;20240;-79
2021/12/24 20:04:47;;;;;;;9.50;6.05;;;;;;;1.68;88.22;99499.75;8477666;34;20173;-78
2021/12/24 20:09:50;;;;;;;8.98;6.13;;;;;;;1.49;88.45;99507.06;8484449;34;20432;-79
2021/12/24 20:14:53;;;;;;;9.07;6.00;;;;;;;1.42;88.15;99506.53;8485846;34;20413;-79
2021/12/24 20:20:00;;;;;;;13.57;7.78;;;;;;;1.49;88.47;99502.63;8497327;34;20134;-79
2021/12/24 20:25:06;;;;;;;12.33;8.37;;;;;;;1.48;88.30;99506.22;8486914;34;20472;-80
2021/12/24 20:30:15;;;;;;;18.83;9.07;;;;;;;1.26;87.82;99505.69;8484486;34;20130;-79
2021/12/24 20:35:20;;;;;;;14.27;8.10;;;;;;;1.21;88.08;99518.38;8487677;34;20524;-79
2021/12/24 20:40:25;;;;;;;13.80;8.70;;;;;;;1.17;88.46;99520.31;8483801;34;20489;-80
2021/12/24 20:45:28;;;;;;;13.85;8.82;;;;;;;1.24;88.65;99507.59;8485158;34;20507;-78
2021/12/24 20:50:36;;;;;;;18.73;9.15;;;;;;;1.34;88.39;99519.34;8486913;34;20427;-78
2021/12/24 20:55:42;;;;;;;17.30;9.52;;;;;;;1.42;88.58;99522.41;8484248;34;20449;-78
2021/12/24 21:00:45;;;;;;;18.35;9.48;;;;;;;1.30;87.84;99525.78;8481246;34;20181;-80
2021/12/24 21:05:50;;;;;;;14.13;8.90;;;;;;;1.25;88.47;99530.47;8482920;34;20929;-79
2021/12/24 21:10:54;;;;;;;16.35;9.32;;;;;;;1.30;88.36;99544.28;8493705;34;20511;-79
2021/12/24 21:15:57;;;;;;;15.95;9.38;;;;;;;1.21;87.82;99531.59;8496725;34;20161;-79
2021/12/24 21:21:02;;;;;;;16.25;9.05;;;;;;;1.10;88.10;99540.13;8496534;34;20495;-77
2021/12/24 21:26:06;;;;;;;12.82;8.50;;;;;;;0.90;87.70;99540.34;8498176;34;20150;-78
2021/12/24 21:31:10;;;;;;;15.35;8.98;;;;;;;1.01;87.52;99543.25;8501356;34;20504;-78
2021/12/24 21:36:15;;;;;;;12.90;8.23;;;;;;;1.08;87.69;99543.78;8507569;34;20923;-78
2021/12/24 21:41:19;;;;;;;15.18;9.13;;;;;;;0.97;87.44;99537.28;8497821;34;20253;-78
2021/12/24 21:46:23;;;;;;;18.67;10.70;;;;;;;0.99;87.66;99537.22;8495539;34;20200;-78
2021/12/24 21:51:28;;;;;;;19.65;9.57;;;;;;;1.03;87.54;99552.81;8496590;34;20146;-78
2021/12/24 21:56:32;;;;;;;16.83;10.48;;;;;;;1.06;87.61;99557.09;8492815;34;20236;-78
2021/12/24 22:01:35;;;;;;;19.83;10.60;;;;;;;0.92;87.45;99557.00;8481951;34;20756;-78
2021/12/24 22:12:02;;;;;;;17.52;9.93;;;;;;;0.89;87.66;99581.81;8487802;34;20224;-78
2021/12/24 22:17:05;;;;;;;17.48;10.10;;;;;;;0.88;87.29;99579.22;8480823;34;20434;-77
2021/12/24 22:22:28;;;;;;;22.35;10.88;;;;;;;0.87;87.67;99575.72;8475849;34;20429;-78
2021/12/24 22:27:36;;;;;;;18.45;9.75;;;;;;;0.74;87.50;99580.84;8477644;34;20512;-77
2021/12/24 22:32:39;;;;;;;18.83;9.77;;;;;;;0.75;87.62;99593.13;8478297;34;20556;-78
2021/12/24 22:37:45;;;;;;;19.45;11.38;;;;;;;0.75;87.96;99594.91;8485515;34;20460;-78
2021/12/24 22:42:48;;;;;;;19.50;10.30;;;;;;;0.76;87.32;99592.16;8491439;34;20542;-77
2021/12/24 22:47:51;;;;;;;15.93;9.20;;;;;;;0.70;87.39;99611.00;8493104;34;20425;-77
2021/12/24 22:52:56;;;;;;;28.60;14.53;;;;;;;0.50;86.98;99619.13;8484607;34;20426;-77
2021/12/24 22:58:04;;;;;;;13.30;8.63;;;;;;;0.32;87.12;99624.41;8454932;34;20152;-77
2021/12/24 23:03:07;;;;;;;18.38;11.30;;;;;;;0.17;87.08;99626.03;8481918;34;20231;-77
2021/12/24 23:08:15;;;;;;;14.73;8.50;;;;;;;0.24;87.67;99625.72;8484636;34;20528;-77
2021/12/24 23:13:18;;;;;;;16.88;8.65;;;;;;;0.21;87.47;99625.88;8478994;34;20138;-77
2021/12/24 23:18:24;;;;;;;12.53;6.70;;;;;;;0.09;87.07;99628.22;8481341;34;20450;-77
2021/12/24 23:23:32;;;;;;;10.43;7.17;;;;;;;0.11;86.99;99636.03;8479660;34;20144;-77
2021/12/24 23:28:38;;;;;;;10.77;7.57;;;;;;;0.12;87.48;99641.25;8479038;34;20410;-77
2021/12/24 23:33:41;;;;;;;9.10;6.10;;;;;;;0.12;86.97;99632.50;8454458;34;20440;-77
2021/12/24 23:38:46;;;;;;;10.23;6.10;;;;;;;-0.01;87.07;99634.03;8452935;34;20422;-77
2021/12/24 23:43:52;;;;;;;8.88;5.47;;;;;;;0.02;87.29;99639.16;8478431;34;20153;-78
2021/12/24 23:48:55;;;;;;;13.67;6.50;;;;;;;0.07;87.31;99645.06;8479192;34;20486;-77
2021/12/24 23:54:00;;;;;;;6.57;5.13;;;;;;;-0.10;86.96;99644.09;8476314;34;20489;-77
2021/12/24 23:59:04;;;;;;;5.83;4.90;;;;;;;-0.17;86.51;99647.97;8473743;34;20142;-77
